createdAt,value
2019-05-13T00:01:46.987Z,6.50
2019-05-13T00:03:50.907Z,6.50
2019-05-13T00:05:54.746Z,6.40
2019-05-13T00:07:58.844Z,6.40
2019-05-13T00:10:04.067Z,6.20
2019-05-13T00:12:08.221Z,6.40
2019-05-13T00:14:13.431Z,6.30
2019-05-13T00:16:17.541Z,6.40
2019-05-13T00:18:23.530Z,6.30
2019-05-13T00:20:27.639Z,6.40
2019-05-13T00:22:33.869Z,6.40
2019-05-13T00:24:37.156Z,6.30
2019-05-13T00:26:41.261Z,6.30
2019-05-13T00:28:45.160Z,6.30
2019-05-13T00:30:48.979Z,6.50
2019-05-13T00:32:54.611Z,6.30
2019-05-13T00:34:58.489Z,6.30
2019-05-13T00:37:08.667Z,6.30
2019-05-13T00:39:08.811Z,6.40
2019-05-13T00:41:14.237Z,6.30
2019-05-13T00:43:18.324Z,6.20
2019-05-13T00:45:24.367Z,6.20
2019-05-13T00:47:27.850Z,6.30
2019-05-13T00:49:34.327Z,6.20
2019-05-13T00:51:37.547Z,6.20
2019-05-13T00:53:44.061Z,6.20
2019-05-13T00:55:47.696Z,6.20
2019-05-13T00:57:53.968Z,6.10
2019-05-13T00:59:57.188Z,6.10
2019-05-13T01:02:03.395Z,6.10
2019-05-13T01:04:06.799Z,6.10
2019-05-13T01:06:12.971Z,6.10
2019-05-13T01:08:16.387Z,6.10
2019-05-13T01:10:20.247Z,6.10
2019-05-13T01:12:24.080Z,6.00
2019-05-13T01:14:27.923Z,6.10
2019-05-13T01:16:34.004Z,6.20
2019-05-13T01:18:37.492Z,6.20
2019-05-13T01:20:43.056Z,6.10
2019-05-13T01:22:46.971Z,6.00
2019-05-13T01:24:50.816Z,5.90
2019-05-13T01:26:54.703Z,6.00
2019-05-13T01:28:58.722Z,5.90
2019-05-13T01:31:04.158Z,5.90
2019-05-13T01:33:08.263Z,5.90
2019-05-13T01:35:14.608Z,5.90
2019-05-13T01:37:17.896Z,6.00
2019-05-13T01:39:24.096Z,6.00
2019-05-13T01:41:27.540Z,5.90
2019-05-13T01:43:33.531Z,5.90
2019-05-13T01:45:37.057Z,5.90
2019-05-13T01:47:43.988Z,5.80
2019-05-13T01:49:48.230Z,5.90
2019-05-13T01:51:54.074Z,5.90
2019-05-13T01:53:57.612Z,5.90
2019-05-13T01:56:03.641Z,5.80
2019-05-13T01:58:07.183Z,5.80
2019-05-13T02:00:13.775Z,5.90
2019-05-13T02:02:16.843Z,5.90
2019-05-13T02:04:20.759Z,5.70
2019-05-13T02:06:24.599Z,5.70
2019-05-13T02:08:28.542Z,5.70
2019-05-13T02:11:04.358Z,5.70
2019-05-13T02:13:08.653Z,5.80
2019-05-13T02:15:14.549Z,5.70
2019-05-13T02:17:18.715Z,5.70
2019-05-13T02:19:24.441Z,5.70
2019-05-13T02:21:28.159Z,5.70
2019-05-13T02:23:33.840Z,5.50
2019-05-13T02:25:37.974Z,5.60
2019-05-13T02:27:44.138Z,5.50
2019-05-13T02:29:47.542Z,5.50
2019-05-13T02:31:55.799Z,5.50
2019-05-13T02:33:57.108Z,5.50
2019-05-13T02:36:02.911Z,5.50
2019-05-13T02:38:19.463Z,5.50
2019-05-13T02:40:13.818Z,5.50
2019-05-13T02:42:17.957Z,5.50
2019-05-13T02:44:22.751Z,5.50
2019-05-13T02:46:26.768Z,5.60
2019-05-13T02:48:33.113Z,5.50
2019-05-13T02:50:36.388Z,5.50
2019-05-13T02:52:40.288Z,5.40
2019-05-13T02:54:44.192Z,5.50
2019-05-13T02:56:48.145Z,5.50
2019-05-13T02:58:52.639Z,5.40
2019-05-13T03:00:56.821Z,5.50
2019-05-13T03:03:03.264Z,5.50
2019-05-13T03:05:06.347Z,5.60
2019-05-13T03:07:12.004Z,5.50
2019-05-13T03:09:15.845Z,5.50
2019-05-13T03:11:22.468Z,5.40
2019-05-13T03:13:25.342Z,5.40
2019-05-13T03:15:32.936Z,5.30
2019-05-13T03:17:43.455Z,5.40
2019-05-13T03:19:47.729Z,5.40
2019-05-13T03:21:52.633Z,5.40
2019-05-13T03:23:56.875Z,5.30
2019-05-13T03:26:02.874Z,5.40
2019-05-13T03:28:06.369Z,5.30
2019-05-13T03:30:15.626Z,5.30
2019-05-13T03:32:17.377Z,5.30
2019-05-13T03:34:26.507Z,5.40
2019-05-13T03:36:27.204Z,5.30
2019-05-13T03:38:32.931Z,5.30
2019-05-13T03:40:42.516Z,5.30
2019-05-13T03:42:47.760Z,5.30
2019-05-13T03:44:54.919Z,5.30
2019-05-13T03:47:03.460Z,5.30
2019-05-13T03:49:13.985Z,5.20
2019-05-13T03:51:16.229Z,5.30
2019-05-13T03:53:23.129Z,5.30
2019-05-13T03:55:26.510Z,5.30
2019-05-13T03:57:33.748Z,5.40
2019-05-13T03:59:37.071Z,5.40
2019-05-13T04:01:42.703Z,5.50
2019-05-13T04:03:47.020Z,5.50
2019-05-13T04:05:52.818Z,5.50
2019-05-13T04:07:56.967Z,5.50
2019-05-13T04:10:03.286Z,5.50
2019-05-13T04:12:06.894Z,5.50
2019-05-13T04:14:12.405Z,5.60
2019-05-13T04:16:16.661Z,5.50
2019-05-13T04:18:23.449Z,5.50
2019-05-13T04:20:26.274Z,5.50
2019-05-13T04:22:33.029Z,5.60
2019-05-13T04:24:36.628Z,5.60
2019-05-13T04:26:43.303Z,5.50
2019-05-13T04:28:46.332Z,5.60
2019-05-13T04:30:52.532Z,5.70
2019-05-13T04:32:56.395Z,5.70
2019-05-13T04:35:03.453Z,5.80
2019-05-13T04:37:06.020Z,5.80
2019-05-13T04:39:12.929Z,5.90
2019-05-13T04:41:15.520Z,5.90
2019-05-13T04:43:23.217Z,6.00
2019-05-13T04:45:25.442Z,6.00
2019-05-13T04:47:32.871Z,6.10
2019-05-13T04:49:35.098Z,6.00
2019-05-13T04:51:41.866Z,6.00
2019-05-13T04:53:44.873Z,6.20
2019-05-13T04:55:48.854Z,6.20
2019-05-13T04:57:53.612Z,6.20
2019-05-13T04:59:57.949Z,6.20
2019-05-13T05:02:49.041Z,6.20
2019-05-13T05:04:59.005Z,6.20
2019-05-13T05:07:13.792Z,6.20
2019-05-13T05:10:13.213Z,6.30
2019-05-13T05:12:32.013Z,6.30
2019-05-13T05:15:03.423Z,6.40
2019-05-13T05:17:43.012Z,6.30
2019-05-13T05:20:12.625Z,6.40
2019-05-13T05:22:26.577Z,6.60
2019-05-13T05:24:54.199Z,6.70
2019-05-13T05:27:27.016Z,6.50
2019-05-13T05:29:42.916Z,6.60
2019-05-13T05:32:18.442Z,6.70
2019-05-13T05:34:55.462Z,6.60
2019-05-13T05:37:46.986Z,6.80
2019-05-13T05:39:54.063Z,6.90
2019-05-13T05:41:58.635Z,6.90
2019-05-13T05:44:03.217Z,6.90
2019-05-13T05:46:08.125Z,7.00
2019-05-13T05:48:15.739Z,7.00
2019-05-13T05:50:22.820Z,7.10
2019-05-13T05:52:28.880Z,7.10
2019-05-13T05:54:34.790Z,7.20
2019-05-13T05:56:41.471Z,7.30
2019-05-13T05:58:46.602Z,7.30
2019-05-13T06:00:52.923Z,7.40
2019-05-13T06:02:57.494Z,7.40
2019-05-13T06:05:03.276Z,7.50
2019-05-13T06:07:07.328Z,7.60
2019-05-13T06:09:12.195Z,7.50
2019-05-13T06:11:16.386Z,7.50
2019-05-13T06:13:21.445Z,7.60
2019-05-13T06:15:25.527Z,7.60
2019-05-13T06:17:31.848Z,7.70
2019-05-13T06:19:35.047Z,7.80
2019-05-13T06:21:39.207Z,7.80
2019-05-13T06:23:43.183Z,7.90
2019-05-13T06:25:47.127Z,8.00
2019-05-13T06:27:51.352Z,8.00
2019-05-13T06:29:55.527Z,8.10
2019-05-13T06:32:15.127Z,8.20
2019-05-13T06:34:05.296Z,8.20
2019-05-13T06:36:11.368Z,8.20
2019-05-13T06:38:15.119Z,8.20
2019-05-13T06:40:21.214Z,8.30
2019-05-13T06:42:24.727Z,8.30
2019-05-13T06:44:28.719Z,8.40
2019-05-13T06:46:32.681Z,8.40
2019-05-13T06:48:36.676Z,8.40
2019-05-13T06:50:41.577Z,8.40
2019-05-13T06:52:45.607Z,8.60
2019-05-13T06:54:51.837Z,8.60
2019-05-13T06:56:55.216Z,8.60
2019-05-13T06:59:01.279Z,8.70
2019-05-13T07:01:04.849Z,8.70
2019-05-13T07:03:08.879Z,8.80
2019-05-13T07:05:12.920Z,8.80
2019-05-13T07:07:36.534Z,8.80
2019-05-13T07:09:55.017Z,8.80
2019-05-13T07:11:59.025Z,8.90
2019-05-13T07:14:03.368Z,9.10
2019-05-13T07:16:07.486Z,9.10
2019-05-13T07:18:11.891Z,9.20
2019-05-13T07:20:16.247Z,9.30
2019-05-13T07:22:23.061Z,9.30
2019-05-13T07:24:26.003Z,9.40
2019-05-13T07:26:31.492Z,9.50
2019-05-13T07:28:35.591Z,9.50
2019-05-13T07:30:42.551Z,9.60
2019-05-13T07:32:46.859Z,9.70
2019-05-13T07:34:53.188Z,9.70
2019-05-13T07:36:57.449Z,9.70
2019-05-13T07:39:04.692Z,9.70
2019-05-13T07:41:11.841Z,9.60
2019-05-13T07:43:14.806Z,9.70
2019-05-13T07:45:21.186Z,9.80
2019-05-13T07:47:24.232Z,9.90
2019-05-13T07:49:28.061Z,9.80
2019-05-13T07:51:32.080Z,9.90
2019-05-13T07:53:36.288Z,10.00
2019-05-13T07:55:43.375Z,10.00
2019-05-13T07:57:47.295Z,10.20
2019-05-13T07:59:52.430Z,10.40
2019-05-13T08:01:56.472Z,10.50
2019-05-13T08:04:02.132Z,10.40
2019-05-13T08:06:05.938Z,10.40
2019-05-13T08:08:11.667Z,10.40
2019-05-13T08:10:15.564Z,10.50
2019-05-13T08:12:21.464Z,10.50
2019-05-13T08:14:24.930Z,10.60
2019-05-13T08:16:28.891Z,10.80
2019-05-13T08:18:32.849Z,10.70
2019-05-13T08:20:36.751Z,11.00
2019-05-13T08:22:42.501Z,11.00
2019-05-13T08:24:46.272Z,10.90
2019-05-13T08:26:52.947Z,10.90
2019-05-13T08:29:01.588Z,10.90
2019-05-13T08:31:02.227Z,10.90
2019-05-13T08:33:06.408Z,11.00
2019-05-13T08:35:12.519Z,11.00
2019-05-13T08:37:16.167Z,10.90
2019-05-13T08:39:21.631Z,11.00
2019-05-13T08:41:25.735Z,10.90
2019-05-13T08:43:31.675Z,11.10
2019-05-13T08:45:35.441Z,11.10
2019-05-13T08:47:41.792Z,11.10
2019-05-13T08:49:45.039Z,11.30
2019-05-13T08:51:49.031Z,11.40
2019-05-13T08:53:52.917Z,11.30
2019-05-13T08:55:56.920Z,11.30
2019-05-13T08:58:01.768Z,11.40
2019-05-13T09:00:06.491Z,11.60
2019-05-13T09:02:11.573Z,11.60
2019-05-13T09:04:15.682Z,11.50
2019-05-13T09:06:21.970Z,11.70
2019-05-13T09:08:25.761Z,11.60
2019-05-13T09:10:31.838Z,11.50
2019-05-13T09:12:38.204Z,11.70
2019-05-13T09:14:41.731Z,11.60
2019-05-13T09:16:45.746Z,11.80
2019-05-13T09:18:52.002Z,11.80
2019-05-13T09:20:55.360Z,11.60
2019-05-13T09:22:59.370Z,11.70
2019-05-13T09:25:03.492Z,11.80
2019-05-13T09:27:07.403Z,11.80
2019-05-13T09:29:12.024Z,11.90
2019-05-13T09:31:16.007Z,11.90
2019-05-13T09:33:21.894Z,12.00
2019-05-13T09:35:25.651Z,12.00
2019-05-13T09:37:31.717Z,12.00
2019-05-13T09:39:35.240Z,12.20
2019-05-13T09:41:44.274Z,12.20
2019-05-13T09:43:46.559Z,12.20
2019-05-13T09:45:52.380Z,12.20
2019-05-13T09:47:56.051Z,12.30
2019-05-13T09:49:59.971Z,12.30
2019-05-13T09:52:04.051Z,12.40
2019-05-13T09:54:08.171Z,12.30
2019-05-13T09:56:12.218Z,12.40
2019-05-13T09:58:16.407Z,12.40
2019-05-13T10:00:21.735Z,12.30
2019-05-13T10:02:25.842Z,12.20
2019-05-13T10:04:31.842Z,12.30
2019-05-13T10:06:35.329Z,12.40
2019-05-13T10:08:41.499Z,12.40
2019-05-13T10:10:45.103Z,12.40
2019-05-13T10:13:07.428Z,12.60
2019-05-13T10:14:54.710Z,12.30
2019-05-13T10:16:58.643Z,12.40
2019-05-13T10:19:02.861Z,12.50
2019-05-13T10:21:07.181Z,12.60
2019-05-13T10:23:12.558Z,12.60
2019-05-13T10:25:18.993Z,12.50
2019-05-13T10:27:24.239Z,12.50
2019-05-13T10:29:28.695Z,12.60
2019-05-13T10:31:32.655Z,12.60
2019-05-13T10:33:36.720Z,12.70
2019-05-13T10:35:42.897Z,12.50
2019-05-13T10:37:47.163Z,12.50
2019-05-13T10:39:51.850Z,12.60
2019-05-13T10:41:55.848Z,12.90
2019-05-13T10:44:02.708Z,13.10
2019-05-13T10:46:05.633Z,13.00
2019-05-13T10:48:10.485Z,13.10
2019-05-13T10:50:15.260Z,13.10
2019-05-13T10:52:19.229Z,13.10
2019-05-13T10:54:23.215Z,12.90
2019-05-13T10:56:27.195Z,12.90
2019-05-13T10:58:31.211Z,13.00
2019-05-13T11:00:54.859Z,12.90
2019-05-13T11:02:58.727Z,13.00
2019-05-13T11:05:03.358Z,13.10
2019-05-13T11:07:07.595Z,13.30
2019-05-13T11:09:13.068Z,13.20
2019-05-13T11:11:17.431Z,13.30
2019-05-13T11:13:23.281Z,13.30
2019-05-13T11:15:38.180Z,13.10
2019-05-13T11:17:33.399Z,13.20
2019-05-13T11:19:37.410Z,13.20
2019-05-13T11:21:44.117Z,13.30
2019-05-13T11:23:46.879Z,13.40
2019-05-13T11:25:52.239Z,13.40
2019-05-13T11:27:58.506Z,13.60
2019-05-13T11:30:05.609Z,14.00
2019-05-13T11:32:07.787Z,14.20
2019-05-13T11:34:11.737Z,14.60
2019-05-13T11:36:19.165Z,15.00
2019-05-13T11:38:22.390Z,15.00
2019-05-13T11:40:26.499Z,14.90
2019-05-13T11:42:32.723Z,15.10
2019-05-13T11:44:36.147Z,15.40
2019-05-13T11:46:42.514Z,15.50
2019-05-13T11:48:45.719Z,14.80
2019-05-13T11:50:51.427Z,14.90
2019-05-13T11:52:55.172Z,15.00
2019-05-13T11:55:01.786Z,15.60
2019-05-13T11:57:06.535Z,16.00
2019-05-13T11:59:14.069Z,16.40
2019-05-13T12:01:16.089Z,16.40
2019-05-13T12:03:22.703Z,16.10
2019-05-13T12:05:25.526Z,16.30
2019-05-13T12:07:32.210Z,16.50
2019-05-13T12:09:35.410Z,16.80
2019-05-13T12:11:39.287Z,17.10
2019-05-13T12:13:43.196Z,17.20
2019-05-13T12:15:50.047Z,17.20
2019-05-13T12:17:53.003Z,17.00
2019-05-13T12:19:56.959Z,17.00
2019-05-13T12:22:02.612Z,17.40
2019-05-13T12:24:10.510Z,17.00
2019-05-13T12:26:12.924Z,17.00
2019-05-13T12:28:17.271Z,16.50
2019-05-13T12:30:22.775Z,16.60
2019-05-13T12:32:26.947Z,16.50
2019-05-13T12:34:37.702Z,16.30
2019-05-13T12:36:36.955Z,16.30
2019-05-13T12:38:44.273Z,16.60
2019-05-13T12:40:47.807Z,16.90
2019-05-13T12:42:53.961Z,17.00
2019-05-13T12:45:08.196Z,17.50
2019-05-13T12:47:06.256Z,17.60
2019-05-13T12:49:13.886Z,17.00
2019-05-13T12:51:16.203Z,16.50
2019-05-13T12:53:22.177Z,17.00
2019-05-13T12:55:26.492Z,17.10
2019-05-13T12:57:32.434Z,17.00
2019-05-13T12:59:36.777Z,17.20
2019-05-13T13:01:40.932Z,17.50
2019-05-13T13:03:45.122Z,17.10
2019-05-13T13:05:49.412Z,17.50
2019-05-13T13:08:16.054Z,17.70
2019-05-13T13:09:59.312Z,18.00
2019-05-13T13:12:03.440Z,18.10
2019-05-13T13:14:10.350Z,17.60
2019-05-13T13:16:13.396Z,17.50
2019-05-13T13:18:17.430Z,17.90
2019-05-13T13:20:24.214Z,17.60
2019-05-13T13:22:27.768Z,17.40
2019-05-13T13:24:31.984Z,17.20
2019-05-13T13:26:37.705Z,17.30
2019-05-13T13:28:43.507Z,17.70
2019-05-13T13:30:47.699Z,17.80
2019-05-13T13:33:06.879Z,17.90
2019-05-13T13:35:14.697Z,18.30
2019-05-13T13:37:16.465Z,17.00
2019-05-13T13:39:25.299Z,17.20
2019-05-13T13:41:26.211Z,17.40
2019-05-13T13:43:36.435Z,17.60
2019-05-13T13:46:06.028Z,17.90
2019-05-13T13:47:45.388Z,17.50
2019-05-13T13:49:47.108Z,17.50
2019-05-13T13:51:51.141Z,17.60
2019-05-13T13:53:56.711Z,17.30
2019-05-13T13:56:02.189Z,16.90
2019-05-13T13:58:06.507Z,17.20
2019-05-13T14:00:33.034Z,17.40
2019-05-13T14:02:16.681Z,17.90
2019-05-13T14:04:20.627Z,18.20
2019-05-13T14:08:34.672Z,17.90
2019-05-13T14:10:38.529Z,17.80
2019-05-13T14:12:42.453Z,17.90
2019-05-13T14:14:46.559Z,18.20
2019-05-13T14:16:51.819Z,18.30
2019-05-13T14:18:56.028Z,18.40
2019-05-13T14:21:03.115Z,18.40
2019-05-13T14:23:05.873Z,17.80
2019-05-13T14:25:11.509Z,16.50
2019-05-13T14:27:15.927Z,16.80
2019-05-13T14:29:22.614Z,16.00
2019-05-13T14:31:25.487Z,15.80
2019-05-13T14:33:32.518Z,16.40
2019-05-13T14:35:35.252Z,16.30
2019-05-13T14:37:39.164Z,16.10
2019-05-13T14:39:43.134Z,16.30
2019-05-13T14:41:47.283Z,16.70
2019-05-13T14:43:51.919Z,17.10
2019-05-13T14:45:56.092Z,17.10
2019-05-13T14:48:01.647Z,16.90
2019-05-13T14:50:06.171Z,16.90
2019-05-13T14:52:11.957Z,17.50
2019-05-13T14:54:17.813Z,17.70
2019-05-13T14:56:22.255Z,18.10
2019-05-13T14:58:26.256Z,17.80
2019-05-13T15:00:32.712Z,17.50
2019-05-13T15:02:36.351Z,18.10
2019-05-13T15:04:41.897Z,17.30
2019-05-13T15:06:45.867Z,16.90
2019-05-13T15:08:52.335Z,16.60
2019-05-13T15:10:55.467Z,16.50
2019-05-13T15:12:59.307Z,16.20
2019-05-13T15:15:03.488Z,16.20
2019-05-13T15:17:07.886Z,16.60
2019-05-13T15:19:12.183Z,17.10
2019-05-13T15:21:16.155Z,17.60
2019-05-13T15:23:22.203Z,17.20
2019-05-13T15:25:25.823Z,17.30
2019-05-13T15:27:31.675Z,16.30
2019-05-13T15:29:35.811Z,16.90
2019-05-13T15:31:41.977Z,16.70
2019-05-13T15:33:45.514Z,16.50
2019-05-13T15:35:51.793Z,16.10
2019-05-13T15:37:55.147Z,16.30
2019-05-13T15:39:59.107Z,16.70
2019-05-13T15:42:03.045Z,17.10
2019-05-13T15:44:06.891Z,17.60
2019-05-13T15:46:12.577Z,18.10
2019-05-13T15:48:16.574Z,17.90
2019-05-13T15:50:21.417Z,17.30
2019-05-13T15:52:25.535Z,17.60
2019-05-13T15:54:29.408Z,17.60
2019-05-13T15:56:33.405Z,17.20
2019-05-13T15:58:39.148Z,17.40
2019-05-13T16:00:42.780Z,17.20
2019-05-13T16:02:46.626Z,17.50
2019-05-13T16:05:00.224Z,16.90
2019-05-13T16:06:56.547Z,16.60
2019-05-13T16:09:02.731Z,16.90
2019-05-13T16:11:06.328Z,16.80
2019-05-13T16:13:11.905Z,17.00
2019-05-13T16:15:16.222Z,17.10
2019-05-13T16:17:26.148Z,17.10
2019-05-13T16:19:32.393Z,16.40
2019-05-13T16:21:34.531Z,16.30
2019-05-13T16:23:38.664Z,16.30
2019-05-13T16:25:42.691Z,16.90
2019-05-13T16:27:46.623Z,17.10
2019-05-13T16:29:51.567Z,17.20
2019-05-13T16:31:55.730Z,17.00
2019-05-13T16:34:01.541Z,16.90
2019-05-13T16:36:07.016Z,17.20
2019-05-13T16:38:11.367Z,17.00
2019-05-13T16:40:15.977Z,16.70
2019-05-13T16:42:22.570Z,16.60
2019-05-13T16:44:26.200Z,16.60
2019-05-13T16:46:31.575Z,16.60
2019-05-13T16:48:35.763Z,16.80
2019-05-13T16:50:41.695Z,16.50
2019-05-13T16:52:45.247Z,16.40
2019-05-13T16:54:49.148Z,16.60
2019-05-13T16:56:53.083Z,16.30
2019-05-13T16:58:57.143Z,16.30
2019-05-13T17:01:02.482Z,16.10
2019-05-13T17:03:07.168Z,16.10
2019-05-13T17:05:11.983Z,16.20
2019-05-13T17:07:16.059Z,16.20
2019-05-13T17:09:20.067Z,16.30
2019-05-13T17:11:24.287Z,16.60
2019-05-13T17:13:28.372Z,16.50
2019-05-13T17:15:32.260Z,16.40
2019-05-13T17:17:36.317Z,16.30
2019-05-13T17:19:42.138Z,16.60
2019-05-13T17:21:45.932Z,16.20
2019-05-13T17:23:52.205Z,16.30
2019-05-13T17:25:55.787Z,16.30
2019-05-13T17:28:02.469Z,16.60
2019-05-13T17:30:06.367Z,16.20
2019-05-13T17:32:11.631Z,15.80
2019-05-13T17:34:15.780Z,15.20
2019-05-13T17:36:21.715Z,15.40
2019-05-13T17:38:25.392Z,15.60
2019-05-13T17:40:31.361Z,15.40
2019-05-13T17:42:34.867Z,15.60
2019-05-13T17:44:38.896Z,15.30
2019-05-13T17:46:42.896Z,15.30
2019-05-13T17:48:46.904Z,15.20
2019-05-13T17:50:52.113Z,15.10
2019-05-13T17:52:56.200Z,14.80
2019-05-13T17:55:01.147Z,14.50
2019-05-13T17:57:05.244Z,14.40
2019-05-13T17:59:11.199Z,14.40
2019-05-13T18:01:14.821Z,14.60
2019-05-13T18:03:18.777Z,14.70
2019-05-13T18:05:24.279Z,14.50
2019-05-13T18:07:28.160Z,14.80
2019-05-13T18:09:32.276Z,14.60
2019-05-13T18:11:36.413Z,15.30
2019-05-13T18:13:43.421Z,15.30
2019-05-13T18:15:46.047Z,15.40
2019-05-13T18:17:52.148Z,14.80
2019-05-13T18:19:55.517Z,14.90
2019-05-13T18:22:01.950Z,14.50
2019-05-13T18:24:05.230Z,14.20
2019-05-13T18:26:09.223Z,14.30
2019-05-13T18:28:27.228Z,14.20
2019-05-13T18:30:18.712Z,14.30
2019-05-13T18:32:22.763Z,14.20
2019-05-13T18:34:26.852Z,14.00
2019-05-13T18:36:31.779Z,13.80
2019-05-13T18:38:35.810Z,14.10
2019-05-13T18:40:41.774Z,14.10
2019-05-13T18:42:45.356Z,14.00
2019-05-13T18:44:51.252Z,14.00
2019-05-13T18:46:55.380Z,13.70
2019-05-13T18:49:02.001Z,13.10
2019-05-13T18:51:05.161Z,12.90
2019-05-13T18:53:09.310Z,12.70
2019-05-13T18:55:15.012Z,12.60
2019-05-13T18:57:21.173Z,12.60
2019-05-13T18:59:24.868Z,12.60
2019-05-13T19:01:29.011Z,12.50
2019-05-13T19:03:33.384Z,12.00
2019-05-13T19:05:37.522Z,11.90
2019-05-13T19:07:41.950Z,11.60
2019-05-13T19:09:46.339Z,11.60
2019-05-13T19:11:51.535Z,11.50
2019-05-13T19:13:55.705Z,11.40
2019-05-13T19:16:02.141Z,11.30
2019-05-13T19:18:05.773Z,11.40
2019-05-13T19:20:11.643Z,11.30
2019-05-13T19:22:15.914Z,11.20
2019-05-13T19:24:20.177Z,11.30
2019-05-13T19:26:24.396Z,11.10
2019-05-13T19:28:28.536Z,11.00
2019-05-13T19:30:32.617Z,11.00
2019-05-13T19:32:36.572Z,11.00
2019-05-13T19:34:42.340Z,10.90
2019-05-13T19:37:23.067Z,10.90
2019-05-13T19:39:27.000Z,10.80
2019-05-13T19:41:31.485Z,10.80
2019-05-13T19:43:35.620Z,10.90
2019-05-13T19:45:41.605Z,10.70
2019-05-13T19:47:45.237Z,10.70
2019-05-13T19:49:49.128Z,10.50
2019-05-13T19:51:52.984Z,10.60
2019-05-13T19:53:56.820Z,10.40
2019-05-13T19:56:01.404Z,10.60
2019-05-13T19:58:05.448Z,10.60
2019-05-13T20:00:11.720Z,10.40
2019-05-13T20:02:15.337Z,10.40
2019-05-13T20:04:19.241Z,10.40
2019-05-13T20:06:23.092Z,10.20
2019-05-13T20:08:27.015Z,10.10
2019-05-13T20:10:31.469Z,10.10
2019-05-13T20:12:35.808Z,10.20
2019-05-13T20:14:39.872Z,10.30
2019-05-13T20:16:44.008Z,10.30
2019-05-13T20:18:48.115Z,10.20
2019-05-13T20:20:52.212Z,10.10
2019-05-13T20:22:57.052Z,10.00
2019-05-13T20:25:01.021Z,10.10
2019-05-13T20:27:08.949Z,10.10
2019-05-13T20:29:13.311Z,9.80
2019-05-13T20:31:17.391Z,9.90
2019-05-13T20:33:22.156Z,9.70
2019-05-13T20:35:26.344Z,9.90
2019-05-13T20:37:32.089Z,10.00
2019-05-13T20:39:36.324Z,10.10
2019-05-13T20:41:41.417Z,9.80
2019-05-13T20:43:46.107Z,9.90
2019-05-13T20:45:51.785Z,9.90
2019-05-13T20:47:55.953Z,9.80
2019-05-13T20:50:02.326Z,9.70
2019-05-13T20:52:05.388Z,9.70
2019-05-13T20:54:11.226Z,9.60
2019-05-13T20:56:14.895Z,9.60
2019-05-13T20:58:21.307Z,9.80
2019-05-13T21:00:25.122Z,9.70
2019-05-13T21:02:28.995Z,9.70
2019-05-13T21:04:32.983Z,9.60
2019-05-13T21:06:36.844Z,9.60
2019-05-13T21:08:41.498Z,9.50
2019-05-13T21:10:45.683Z,9.50
2019-05-13T21:12:51.400Z,9.50
2019-05-13T21:14:55.359Z,9.30
2019-05-13T21:17:01.232Z,9.20
2019-05-13T21:19:05.135Z,9.30
2019-05-13T21:21:11.105Z,9.30
2019-05-13T21:23:15.137Z,9.20
2019-05-13T21:25:19.163Z,9.30
2019-05-13T21:27:22.986Z,9.10
2019-05-13T21:29:26.830Z,9.10
2019-05-13T21:31:30.684Z,9.10
2019-05-13T21:33:34.541Z,9.10
2019-05-13T21:35:38.523Z,9.20
2019-05-13T21:37:42.541Z,9.20
2019-05-13T21:39:46.356Z,9.10
2019-05-13T21:41:51.909Z,9.10
2019-05-13T21:43:56.090Z,9.20
2019-05-13T21:46:01.899Z,8.90
2019-05-13T21:48:05.819Z,8.90
2019-05-13T21:50:11.558Z,8.90
2019-05-13T21:52:15.579Z,9.00
2019-05-13T21:54:19.523Z,8.90
2019-05-13T21:56:23.420Z,9.00
2019-05-13T21:58:27.551Z,9.10
2019-05-13T22:00:38.903Z,9.00
2019-05-13T22:02:42.883Z,8.80
2019-05-13T22:04:46.813Z,8.70
2019-05-13T22:06:50.816Z,8.60
2019-05-13T22:08:54.789Z,8.60
2019-05-13T22:11:01.570Z,8.60
2019-05-13T22:13:05.865Z,8.50
2019-05-13T22:15:10.754Z,8.40
2019-05-13T22:17:14.619Z,8.50
2019-05-13T22:19:18.722Z,8.70
2019-05-13T22:21:23.892Z,8.60
2019-05-13T22:23:32.064Z,8.70
2019-05-13T22:25:37.251Z,8.60
2019-05-13T22:27:41.408Z,8.50
2019-05-13T22:29:45.300Z,8.40
2019-05-13T22:31:51.091Z,8.60
2019-05-13T22:33:57.803Z,8.40
2019-05-13T22:36:01.950Z,8.40
2019-05-13T22:38:05.959Z,8.40
2019-05-13T22:40:11.227Z,8.30
2019-05-13T22:42:21.572Z,8.20
2019-05-13T22:44:25.484Z,8.20
2019-05-13T22:46:32.045Z,8.20
2019-05-13T22:48:34.986Z,8.20
2019-05-13T22:50:38.903Z,8.20
2019-05-13T22:52:42.855Z,8.20
2019-05-13T22:54:46.825Z,8.30
2019-05-13T22:56:52.182Z,8.30
2019-05-13T22:58:56.999Z,8.30
2019-05-13T23:01:02.541Z,8.30
2019-05-13T23:03:06.739Z,8.20
2019-05-13T23:05:11.306Z,8.10
2019-05-13T23:07:15.403Z,8.20
2019-05-13T23:09:21.486Z,8.00
2019-05-13T23:11:24.803Z,7.90
2019-05-13T23:13:31.156Z,8.00
2019-05-13T23:15:34.407Z,7.70
2019-05-13T23:17:38.340Z,7.90
2019-05-13T23:19:42.283Z,7.70
2019-05-13T23:21:46.120Z,7.90
2019-05-13T23:23:51.501Z,7.80
2019-05-13T23:25:56.918Z,8.00
2019-05-13T23:28:00.891Z,7.60
2019-05-13T23:30:04.948Z,7.50
2019-05-13T23:32:08.763Z,7.70
2019-05-13T23:34:12.705Z,7.60
2019-05-13T23:36:16.643Z,7.70
2019-05-13T23:38:21.399Z,7.70
2019-05-13T23:40:25.506Z,7.50
2019-05-13T23:42:31.783Z,7.30
2019-05-13T23:44:34.917Z,7.50
2019-05-13T23:46:38.839Z,7.80
2019-05-13T23:48:43.144Z,8.00
2019-05-13T23:50:47.092Z,7.90
2019-05-13T23:52:51.338Z,7.70
2019-05-13T23:54:55.468Z,7.40
2019-05-13T23:57:01.206Z,7.60
2019-05-13T23:59:05.240Z,7.30
